Palmetto State — KPSJ — position and weather

sailwx.info

Track history (hours):
 
Tides and Currents Weather Stations Pressure Air Temp Water Temp Dewpoint Dewpoint Depression Visibility Wind Speed Wind Dir Waves Ship Positions

Palmetto State

Owner: Crowley Petroleum Services, Inc., Jacksonville, FL. More information available from US FCC via Universal Licensing System and Coast Guard Vessel Documentation Center.

Last reported at 2017-Sep-17 13:00 UTC. Time now 2017-Sep-21 09:00 UTC.
Position N 25°15' W 080°02'.

Length 186 m; draft 9.1 m.

Type: Tanker. MMSI: 369225000.

Date/timePositionNaut miles runAvg speedWind from/ knotsBaromVisibWave heightAir tempDewpointWater temp
2017-Sep-17 13:00N 25°15' W 080°02'612.4
2017-Sep-17 12:30N 25°20' W 080°00'612.9
2017-Sep-17 12:00N 25°27' W 079°59'611.8
2017-Sep-17 11:30N 25°33' W 079°59'510.4
2017-Sep-17 11:00N 25°38' W 079°59'510.2
2017-Sep-17 10:30N 25°43' W 079°58'510.6
2017-Sep-17 10:00N 25°48' W 079°58'510.6
2017-Sep-17 09:30N 25°54' W 079°58'510.5
2017-Sep-17 09:00N 25°59' W 079°58'510.6
2017-Sep-17 08:30N 26°04' W 079°57'510.4
2017-Sep-17 07:59N 26°09' W 079°56'510.3
2017-Sep-17 07:30N 26°14' W 079°56'3110.7
2017-Sep-17 04:38N 26°45' W 079°55'110.6
2017-Sep-17 04:30N 26°46' W 079°55'510.6
2017-Sep-17 04:00N 26°52' W 079°55'510.6
2017-Sep-17 03:30N 26°57' W 079°55'510.3
2017-Sep-17 03:00N 27°02' W 079°56'510.1
2017-Sep-17 02:30N 27°07' W 079°57'  
2017-Sep-13 00:38N 26°03' W 079°52'215.2
2017-Sep-13 00:30N 26°01' W 079°53'815.4
2017-Sep-13 00:00N 25°53' W 079°54'815.3
2017-Sep-12 23:31N 25°46' W 079°55'815.2
2017-Sep-12 23:00N 25°38' W 079°56'815.1
2017-Sep-12 22:30N 25°31' W 079°57'814.7
2017-Sep-12 22:00N 25°23' W 079°58'  
2017-Sep-08 21:57N 29°46' W 093°21'3 5.9
2017-Sep-08 21:30N 29°49' W 093°21'4 8.9
2017-Sep-08 21:00N 29°53' W 093°21'4 8.9
2017-Sep-08 20:30N 29°58' W 093°20'3 6.7
2017-Sep-08 20:01N 30°01' W 093°20'3 6.8
2017-Sep-08 19:31N 30°04' W 093°20'3 6.4
2017-Sep-08 19:00N 30°08' W 093°20'2 4.7
2017-Sep-08 18:30N 30°10' W 093°19'1 1.8
2017-Sep-08 18:00N 30°11' W 093°19'0 0.0
2017-Sep-08 17:26N 30°11' W 093°19'0 0.0
2017-Sep-08 16:59N 30°11' W 093°19'0 0.0
2017-Sep-08 16:29N 30°11' W 093°19'0 0.0
2017-Sep-08 15:59N 30°11' W 093°19'0 0.0
2017-Sep-08 15:29N 30°11' W 093°19'0 0.0
2017-Sep-08 14:56N 30°11' W 093°19'0 0.0
2017-Sep-08 14:23N 30°11' W 093°19'0 0.0
2017-Sep-08 13:59N 30°11' W 093°19'0 0.0
2017-Sep-08 13:02N 30°11' W 093°19'0 0.1
2017-Sep-08 12:59N 30°11' W 093°19'0 0.0
2017-Sep-08 12:29N 30°11' W 093°19'0 0.0
2017-Sep-08 11:59N 30°11' W 093°19'0 0.0
2017-Sep-08 11:26N 30°11' W 093°19'0 0.0
2017-Sep-08 07:53N 30°11' W 093°19'0 0.0
2017-Sep-08 02:17N 30°11' W 093°19'0 0.0
2017-Sep-08 01:53N 30°11' W 093°19'0 0.0
2017-Sep-08 01:23N 30°11' W 093°19'0 0.0
2017-Sep-08 00:59N 30°11' W 093°19'0 0.0
2017-Sep-08 00:29N 30°11' W 093°19'0 0.0
2017-Sep-07 23:59N 30°11' W 093°19'0 0.0
2017-Sep-07 23:29N 30°11' W 093°19'0 0.0
2017-Sep-07 22:59N 30°11' W 093°19'0 0.0
2017-Sep-07 22:29N 30°11' W 093°19'0 0.0
2017-Sep-07 21:59N 30°11' W 093°19'0 0.0
2017-Sep-07 21:26N 30°11' W 093°19'0 0.0
2017-Sep-07 20:59N 30°11' W 093°19'0 0.0
2017-Sep-07 20:29N 30°11' W 093°19'0 0.0
2017-Sep-07 19:59N 30°11' W 093°19'0 0.0
2017-Sep-07 19:29N 30°11' W 093°19'0 0.0
2017-Sep-07 18:59N 30°11' W 093°19'0 0.0
2017-Sep-07 18:29N 30°11' W 093°19'0 0.0
2017-Sep-07 17:59N 30°11' W 093°19'0 0.0
2017-Sep-07 17:29N 30°11' W 093°19'0 0.0
2017-Sep-07 16:59N 30°11' W 093°19'0 0.0
2017-Sep-07 16:29N 30°11' W 093°19'0 0.0
2017-Sep-07 15:59N 30°11' W 093°19'0 0.0
2017-Sep-07 15:29N 30°11' W 093°19'0 0.0
2017-Sep-07 14:59N 30°11' W 093°19'  
Track history (hours):
 
Tides and Currents Weather Stations Pressure Air Temp Water Temp Dewpoint Dewpoint Depression Visibility Wind Speed Wind Dir Waves Ship Positions

Palmetto State

Owner: Crowley Petroleum Services, Inc., Jacksonville, FL. More information available from US FCC via Universal Licensing System and Coast Guard Vessel Documentation Center.

Last reported at 2017-Sep-17 13:00 UTC. Time now 2017-Sep-21 09:00 UTC.
Position N 25°15' W 080°02'.

Length 186 m; draft 9.1 m.

Type: Tanker. MMSI: 369225000.

Date/timePositionNaut miles runAvg speedWind from/ knotsBaromVisibWave heightAir tempDewpointWater temp
2017-Sep-17 13:00N 25°15' W 080°02'612.4
2017-Sep-17 12:30N 25°20' W 080°00'612.9
2017-Sep-17 12:00N 25°27' W 079°59'611.8
2017-Sep-17 11:30N 25°33' W 079°59'510.4
2017-Sep-17 11:00N 25°38' W 079°59'510.2
2017-Sep-17 10:30N 25°43' W 079°58'510.6
2017-Sep-17 10:00N 25°48' W 079°58'510.6
2017-Sep-17 09:30N 25°54' W 079°58'510.5
2017-Sep-17 09:00N 25°59' W 079°58'510.6
2017-Sep-17 08:30N 26°04' W 079°57'510.4
2017-Sep-17 07:59N 26°09' W 079°56'510.3
2017-Sep-17 07:30N 26°14' W 079°56'3110.7
2017-Sep-17 04:38N 26°45' W 079°55'110.6
2017-Sep-17 04:30N 26°46' W 079°55'510.6
2017-Sep-17 04:00N 26°52' W 079°55'510.6
2017-Sep-17 03:30N 26°57' W 079°55'510.3
2017-Sep-17 03:00N 27°02' W 079°56'510.1
2017-Sep-17 02:30N 27°07' W 079°57'  
2017-Sep-13 00:38N 26°03' W 079°52'215.2
2017-Sep-13 00:30N 26°01' W 079°53'815.4
2017-Sep-13 00:00N 25°53' W 079°54'815.3
2017-Sep-12 23:31N 25°46' W 079°55'815.2
2017-Sep-12 23:00N 25°38' W 079°56'815.1
2017-Sep-12 22:30N 25°31' W 079°57'814.7
2017-Sep-12 22:00N 25°23' W 079°58'  
2017-Sep-08 21:57N 29°46' W 093°21'3 5.9
2017-Sep-08 21:30N 29°49' W 093°21'4 8.9
2017-Sep-08 21:00N 29°53' W 093°21'4 8.9
2017-Sep-08 20:30N 29°58' W 093°20'3 6.7
2017-Sep-08 20:01N 30°01' W 093°20'3 6.8
2017-Sep-08 19:31N 30°04' W 093°20'3 6.4
2017-Sep-08 19:00N 30°08' W 093°20'2 4.7
2017-Sep-08 18:30N 30°10' W 093°19'1 1.8
2017-Sep-08 18:00N 30°11' W 093°19'0 0.0
2017-Sep-08 17:26N 30°11' W 093°19'0 0.0
2017-Sep-08 16:59N 30°11' W 093°19'0 0.0
2017-Sep-08 16:29N 30°11' W 093°19'0 0.0
2017-Sep-08 15:59N 30°11' W 093°19'0 0.0
2017-Sep-08 15:29N 30°11' W 093°19'0 0.0
2017-Sep-08 14:56N 30°11' W 093°19'0 0.0
2017-Sep-08 14:23N 30°11' W 093°19'0 0.0
2017-Sep-08 13:59N 30°11' W 093°19'0 0.0
2017-Sep-08 13:02N 30°11' W 093°19'0 0.1
2017-Sep-08 12:59N 30°11' W 093°19'0 0.0
2017-Sep-08 12:29N 30°11' W 093°19'0 0.0
2017-Sep-08 11:59N 30°11' W 093°19'0 0.0
2017-Sep-08 11:26N 30°11' W 093°19'0 0.0
2017-Sep-08 07:53N 30°11' W 093°19'0 0.0
2017-Sep-08 02:17N 30°11' W 093°19'0 0.0
2017-Sep-08 01:53N 30°11' W 093°19'0 0.0
2017-Sep-08 01:23N 30°11' W 093°19'0 0.0
2017-Sep-08 00:59N 30°11' W 093°19'0 0.0
2017-Sep-08 00:29N 30°11' W 093°19'0 0.0
2017-Sep-07 23:59N 30°11' W 093°19'0 0.0
2017-Sep-07 23:29N 30°11' W 093°19'0 0.0
2017-Sep-07 22:59N 30°11' W 093°19'0 0.0
2017-Sep-07 22:29N 30°11' W 093°19'0 0.0
2017-Sep-07 21:59N 30°11' W 093°19'0 0.0
2017-Sep-07 21:26N 30°11' W 093°19'0 0.0
2017-Sep-07 20:59N 30°11' W 093°19'0 0.0
2017-Sep-07 20:29N 30°11' W 093°19'0 0.0
2017-Sep-07 19:59N 30°11' W 093°19'0 0.0
2017-Sep-07 19:29N 30°11' W 093°19'0 0.0
2017-Sep-07 18:59N 30°11' W 093°19'0 0.0
2017-Sep-07 18:29N 30°11' W 093°19'0 0.0
2017-Sep-07 17:59N 30°11' W 093°19'0 0.0
2017-Sep-07 17:29N 30°11' W 093°19'0 0.0
2017-Sep-07 16:59N 30°11' W 093°19'0 0.0
2017-Sep-07 16:29N 30°11' W 093°19'0 0.0
2017-Sep-07 15:59N 30°11' W 093°19'0 0.0
2017-Sep-07 15:29N 30°11' W 093°19'0 0.0
2017-Sep-07 14:59N 30°11' W 093°19'  

Dump ship's entire track history